Terminal Aerodrome Forecast
Issued by NWS Newport/Morehead City, NC

Home | Current Version | Previous Version | Text Only | Print | Product List | Glossary On
Versions: 1 2 3 4 5 6 7 8 9 10 11 12 13 14 15 16
000
FTUS42 KMHX 310546
TAFEWN
TAF
KEWN 310546Z 3106/0106 00000KT 4SM BR SCT010 BKN250
      TEMPO 3106/3109 2SM BR BKN010
     FM310900 00000KT 4SM BR BKN150
     FM311300 36004KT P6SM SCT040 BKN130
     FM311900 04005KT P6SM VCTS BKN050CB
     FM010200 16003KT P6SM VCSH SCT040 BKN250=

USA.gov is the U.S. government's official web portal to all federal, state and local government web resources and services.